Hundvaag 1 weather for Mar 2000
Month no. 153
Obs.
Da.
Temp. Dew Point Precip. Wind
Speed
Wind gusts Cloud cover Press. Humidity Wind dir. Sunny OPT
01.03.2000 2,8   2,3     0 998,4     1  
02.03.2000 -0,6   2,0     4 1010,3     1  
03.03.2000 2,5   12,2     4 990,7     1  
04.03.2000 -1,1   0,3     9 1009,7     1  
05.03.2000 -0,2   2,4     0 1018,8        
06.03.2000 6,4   5,2     0 1010,7        
07.03.2000 4,2   2,0     0 1009,3     1  
08.03.2000 1,6   3,0     0 1006,7        
09.03.2000 1,5   9,0     9 1008,5     1  
10.03.2000 0,4   0,0     1 1018,0        
11.03.2000 2,7   6,3     1 1011,5        
12.03.2000 3,8   0,9     0 1017,3        
13.03.2000 6,2   3,4     0 1016,0        
14.03.2000 3,5   5,5     0 1012,0     1  
15.03.2000 -0,5   3,2     10 1017,7        
16.03.2000 1,9   1,9     0 1021,2     1  
17.03.2000 4,7   2,5     0 1020,3        
18.03.2000 4,5   2,3     10 1024,0     1  
19.03.2000 7,4   0,0     0 1024,1        
20.03.2000 7,3   0,0     0 1021,6     1  
21.03.2000 6,0   0,7     0 1018,4        
22.03.2000 1,0   0,4     8 1018,5     1  
23.03.2000 1,4   0,2     0 1018,5     1  
24.03.2000 0,4   0,9     4 1018,1     1  
25.03.2000 4,8   0,0     0 1014,7        
26.03.2000 5,1   0,9     0 1014,4        
27.03.2000 3,0   0,1     9 1018,3     1  
28.03.2000 -1,1   0,0     10 1023,9     1  
29.03.2000 3,4   0,0     1 1022,9     1  
30.03.2000 3,3   0,0     0 1020,9     1  
31.03.2000 5,7   0,0     0 1012,0     1  
Avrg/Sum 3,0   67,6     2,6 1015,1     18